Time;durP1;ratioP1;P1;durP2;ratioP2;P2;SDS_P1;SDS_P2;PMS_P1;PMS_P2;Temp;Humidity;BMP_temperature;BMP_pressure;BME280_temperature;BME280_humidity;BME280_pressure;Samples;Min_cycle;Max_cycle;Signal;HPM_P1;HPM_P2
2022/11/27 00:01:37;;;;;;;14.18;7.40;;;;;;;;;;4926323;29;20558;-81
2022/11/27 00:04:03;;;;;;;18.97;8.27;;;;;;;;;;4929363;28;20043;-81
2022/11/27 00:06:30;;;;;;;16.02;8.15;;;;;;;;;;4912981;29;20272;-82
2022/11/27 00:08:56;;;;;;;16.70;8.18;;;;;;;;;;4906010;29;20042;-80
2022/11/27 00:11:24;;;;;;;21.63;8.57;;;;;;;;;;4918663;29;20138;-81
2022/11/27 00:13:49;;;;;;;19.58;8.60;;;;;;;;;;4920240;29;20119;-80
2022/11/27 00:16:15;;;;;;;16.88;8.63;;;;;;;;;;4917357;28;20114;-80
2022/11/27 00:18:41;;;;;;;17.55;8.93;;;;;;;;;;4916712;28;20044;-81
2022/11/27 00:21:09;;;;;;;17.30;8.88;;;;;;;;;;4916126;29;20042;-81
2022/11/27 00:23:35;;;;;;;17.13;8.20;;;;;;;;;;4917240;29;20043;-81
2022/11/27 00:26:04;;;;;;;16.85;8.70;;;;;;;;;;4921817;29;20201;-81
2022/11/27 00:28:29;;;;;;;19.08;9.02;;;;;;;;;;4919268;29;20119;-81
2022/11/27 00:31:03;;;;;;;20.98;8.93;;;;;;;;;;4931104;29;20432;-81
2022/11/27 00:33:28;;;;;;;16.52;8.38;;;;;;;;;;4931762;29;20039;-81
2022/11/27 00:35:54;;;;;;;16.90;9.10;;;;;;;;;;4918493;28;20040;-81
2022/11/27 00:38:19;;;;;;;19.25;8.15;;;;;;;;;;4919232;29;20047;-81
2022/11/27 00:40:46;;;;;;;21.83;9.65;;;;;;;;;;4920015;29;20559;-81
2022/11/27 00:43:11;;;;;;;18.08;8.07;;;;;;;;;;4949582;28;20387;-80
2022/11/27 00:45:37;;;;;;;15.77;8.20;;;;;;;;;;4917457;28;20051;-81
2022/11/27 00:48:03;;;;;;;14.05;8.13;;;;;;;;;;4921350;29;20368;-81
2022/11/27 00:50:30;;;;;;;16.42;8.13;;;;;;;;;;4920582;29;20036;-81
2022/11/27 00:52:56;;;;;;;;;;;;;;;;;;4916197;29;20048;-81
2022/11/27 00:55:21;;;;;;;14.75;7.45;;;;;;;;;;4935812;28;19941;-81
2022/11/27 00:57:47;;;;;;;16.95;7.85;;;;;;;;;;4915303;29;20079;-80
2022/11/27 01:00:13;;;;;;;15.10;7.88;;;;;;;;;;4915759;29;20044;-81
2022/11/27 01:02:39;;;;;;;18.65;8.05;;;;;;;;;;4918113;29;20124;-80
2022/11/27 01:05:07;;;;;;;14.57;7.93;;;;;;;;;;4936626;29;20055;-80
2022/11/27 01:07:33;;;;;;;19.40;8.32;;;;;;;;;;4917420;29;20067;-81
2022/11/27 01:09:58;;;;;;;17.00;7.75;;;;;;;;;;4934454;29;20055;-81
2022/11/27 01:12:24;;;;;;;17.23;8.38;;;;;;;;;;4915777;29;20054;-80
2022/11/27 01:14:49;;;;;;;19.38;7.53;;;;;;;;;;4913165;29;20040;-81
2022/11/27 01:17:14;;;;;;;16.73;8.15;;;;;;;;;;4931958;28;20083;-82
2022/11/27 01:19:40;;;;;;;19.08;8.63;;;;;;;;;;4929150;29;20156;-81
2022/11/27 01:22:05;;;;;;;18.52;8.63;;;;;;;;;;4930524;28;20039;-81
2022/11/27 01:24:31;;;;;;;19.10;8.65;;;;;;;;;;4920786;29;20051;-80
2022/11/27 01:26:56;;;;;;;16.10;7.68;;;;;;;;;;4933294;28;20039;-81
2022/11/27 01:29:22;;;;;;;18.02;7.80;;;;;;;;;;4932054;29;20058;-79
2022/11/27 01:31:47;;;;;;;15.10;8.25;;;;;;;;;;4915983;29;20094;-81
2022/11/27 01:34:15;;;;;;;18.50;8.65;;;;;;;;;;4916147;29;20407;-81
2022/11/27 01:36:41;;;;;;;20.50;8.63;;;;;;;;;;4916190;29;20039;-81
2022/11/27 01:39:06;;;;;;;20.02;8.20;;;;;;;;;;4932393;28;20035;-81
2022/11/27 01:41:40;;;;;;;18.58;8.40;;;;;;;;;;4916695;29;20035;-81
2022/11/27 01:44:23;;;;;;;19.15;8.02;;;;;;;;;;4931363;29;20040;-81
2022/11/27 01:47:08;;;;;;;15.65;8.07;;;;;;;;;;4926219;28;20050;-82
2022/11/27 01:49:38;;;;;;;17.75;8.18;;;;;;;;;;4930064;29;20846;-81
2022/11/27 01:52:12;;;;;;;15.32;7.60;;;;;;;;;;4930912;29;20047;-80
2022/11/27 01:54:45;;;;;;;15.57;7.88;;;;;;;;;;4946883;28;20098;-81
2022/11/27 01:57:17;;;;;;;15.38;7.47;;;;;;;;;;4915074;29;20032;-81
2022/11/27 01:59:43;;;;;;;16.92;8.23;;;;;;;;;;4915696;29;20456;-82
2022/11/27 02:02:08;;;;;;;15.98;7.60;;;;;;;;;;4913304;29;20036;-81
2022/11/27 02:04:34;;;;;;;15.23;7.43;;;;;;;;;;4927474;29;20530;-81
2022/11/27 02:06:59;;;;;;;15.80;7.25;;;;;;;;;;4934202;29;20032;-82
2022/11/27 02:09:27;;;;;;;12.57;7.03;;;;;;;;;;4916967;28;20039;-81
2022/11/27 02:12:01;;;;;;;17.42;7.70;;;;;;;;;;4917094;29;20047;-80
2022/11/27 02:14:26;;;;;;;22.25;7.93;;;;;;;;;;4944668;28;20035;-80
2022/11/27 02:17:29;;;;;;;15.88;7.95;;;;;;;;;;4948863;28;20114;-80
2022/11/27 02:20:16;;;;;;;14.60;7.50;;;;;;;;;;4943959;28;20042;-81
2022/11/27 02:23:02;;;;;;;20.27;8.13;;;;;;;;;;4932423;28;20043;-81
2022/11/27 02:25:36;;;;;;;17.98;7.65;;;;;;;;;;4946177;28;20044;-81
2022/11/27 02:28:19;;;;;;;15.52;7.70;;;;;;;;;;4933759;28;20043;-83
2022/11/27 02:31:15;;;;;;;15.40;7.97;;;;;;;;;;4944098;28;20503;-83
2022/11/27 02:33:47;;;;;;;13.68;7.30;;;;;;;;;;4944850;28;20412;-81
2022/11/27 02:36:29;;;;;;;16.02;7.80;;;;;;;;;;4918093;28;20051;-82
2022/11/27 02:39:25;;;;;;;19.27;8.57;;;;;;;;;;4931947;28;20558;-81
2022/11/27 02:41:59;;;;;;;21.00;8.57;;;;;;;;;;4915286;29;20405;-80
2022/11/27 02:44:26;;;;;;;18.40;8.32;;;;;;;;;;4918816;28;20114;-81
2022/11/27 02:46:53;;;;;;;20.30;8.57;;;;;;;;;;4916661;29;20046;-81
2022/11/27 02:49:19;;;;;;;17.08;8.45;;;;;;;;;;4918349;29;20478;-81
2022/11/27 02:51:48;;;;;;;17.05;8.43;;;;;;;;;;4915249;29;20044;-81
2022/11/27 02:54:19;;;;;;;20.33;8.55;;;;;;;;;;4931080;28;20081;-81
2022/11/27 02:56:47;;;;;;;20.42;8.82;;;;;;;;;;4914370;28;20039;-81
2022/11/27 02:59:13;;;;;;;17.30;8.05;;;;;;;;;;4929101;28;20038;-84
2022/11/27 03:01:42;;;;;;;18.42;8.25;;;;;;;;;;4917158;28;20032;-80
2022/11/27 03:04:11;;;;;;;18.38;9.35;;;;;;;;;;4932113;28;20122;-82
2022/11/27 03:06:45;;;;;;;20.58;8.77;;;;;;;;;;4931959;29;20292;-81
2022/11/27 03:12:57;;;;;;;17.00;8.52;;;;;;;;;;4896025;29;20048;-82
2022/11/27 03:15:24;;;;;;;16.45;8.27;;;;;;;;;;4866403;29;20077;-81
2022/11/27 03:18:01;;;;;;;17.73;8.85;;;;;;;;;;4865409;29;20610;-81
2022/11/27 03:20:37;;;;;;;18.38;8.77;;;;;;;;;;4865233;29;25550;-83
2022/11/27 03:23:02;;;;;;;17.73;8.05;;;;;;;;;;4877745;29;20051;-81
2022/11/27 03:25:27;;;;;;;19.67;9.05;;;;;;;;;;4879454;29;20040;-81
2022/11/27 03:27:57;;;;;;;20.48;9.38;;;;;;;;;;4867412;29;20446;-81
2022/11/27 03:30:22;;;;;;;18.25;8.52;;;;;;;;;;4881369;29;20256;-82
2022/11/27 03:32:48;;;;;;;20.45;8.80;;;;;;;;;;4871971;29;21651;-81
2022/11/27 03:35:15;;;;;;;20.85;9.55;;;;;;;;;;4872063;29;20074;-82
2022/11/27 03:37:41;;;;;;;16.58;8.88;;;;;;;;;;4879842;29;20068;-82
2022/11/27 03:40:07;;;;;;;15.93;9.13;;;;;;;;;;4864879;29;20040;-81
2022/11/27 03:42:42;;;;;;;15.93;9.13;;;;;;;;;;4873296;29;20245;-82
2022/11/27 03:46:01;;;;;;;20.17;9.02;;;;;;;;;;4899569;29;20051;-81
2022/11/27 03:48:31;;;;;;;16.70;9.02;;;;;;;;;;4872222;29;20033;-81
2022/11/27 03:51:29;;;;;;;18.42;9.35;;;;;;;;;;4931368;28;20038;-81
2022/11/27 03:54:01;;;;;;;19.10;9.23;;;;;;;;;;4903569;29;20048;-81
2022/11/27 03:56:44;;;;;;;17.70;9.07;;;;;;;;;;4904295;29;20059;-81
2022/11/27 03:59:28;;;;;;;17.10;9.18;;;;;;;;;;4933452;29;20051;-81
2022/11/27 04:01:54;;;;;;;17.73;8.90;;;;;;;;;;4930737;28;20412;-81
2022/11/27 04:04:19;;;;;;;15.80;8.45;;;;;;;;;;4924310;29;20027;-81
2022/11/27 04:06:45;;;;;;;16.98;8.48;;;;;;;;;;4916687;29;20637;-81
2022/11/27 04:09:10;;;;;;;17.35;9.07;;;;;;;;;;4934282;29;20098;-81
2022/11/27 04:11:38;;;;;;;16.30;8.93;;;;;;;;;;4914249;29;20128;-81
2022/11/27 04:14:04;;;;;;;17.52;9.15;;;;;;;;;;4917712;29;20099;-81
2022/11/27 04:16:30;;;;;;;17.85;8.68;;;;;;;;;;4920719;29;20082;-81
2022/11/27 04:18:55;;;;;;;17.38;9.02;;;;;;;;;;4918120;29;20115;-82
2022/11/27 04:21:21;;;;;;;15.80;9.20;;;;;;;;;;4918547;29;20566;-81
2022/11/27 04:23:46;;;;;;;17.00;9.02;;;;;;;;;;4932253;29;20415;-81
2022/11/27 04:26:11;;;;;;;16.58;9.07;;;;;;;;;;4918394;29;20107;-81
2022/11/27 04:28:37;;;;;;;22.45;10.65;;;;;;;;;;4918347;28;20456;-83
2022/11/27 04:31:03;;;;;;;16.98;9.55;;;;;;;;;;4918071;29;20032;-81
2022/11/27 04:33:28;;;;;;;18.67;9.05;;;;;;;;;;4915837;29;20032;-82
2022/11/27 04:35:54;;;;;;;16.40;9.25;;;;;;;;;;4933832;29;20384;-81
2022/11/27 04:38:20;;;;;;;16.67;9.10;;;;;;;;;;4921049;29;20110;-81
2022/11/27 04:40:45;;;;;;;19.55;9.25;;;;;;;;;;4912876;29;20522;-81
2022/11/27 04:43:11;;;;;;;20.00;9.88;;;;;;;;;;4920305;29;20031;-82
2022/11/27 04:45:40;;;;;;;18.63;9.25;;;;;;;;;;4917455;29;20047;-80
2022/11/27 04:48:05;;;;;;;14.45;8.98;;;;;;;;;;4935619;28;20035;-80
2022/11/27 04:50:31;;;;;;;18.00;9.30;;;;;;;;;;4933387;29;21560;-81
2022/11/27 04:52:56;;;;;;;17.30;9.10;;;;;;;;;;4917625;29;20404;-82
2022/11/27 04:55:22;;;;;;;20.42;9.10;;;;;;;;;;4919652;28;20079;-81
2022/11/27 04:57:47;;;;;;;19.35;9.02;;;;;;;;;;4914911;29;20039;-81
2022/11/27 05:00:13;;;;;;;14.43;8.18;;;;;;;;;;4929767;28;20102;-82
2022/11/27 05:02:39;;;;;;;18.83;8.57;;;;;;;;;;4917966;29;20087;-82
2022/11/27 05:05:04;;;;;;;18.42;8.75;;;;;;;;;;4922710;29;20043;-81
2022/11/27 05:07:30;;;;;;;16.00;8.30;;;;;;;;;;4934942;28;20047;-82
2022/11/27 05:09:55;;;;;;;16.55;8.82;;;;;;;;;;4934242;28;20130;-82
2022/11/27 05:12:21;;;;;;;18.70;8.95;;;;;;;;;;4933311;29;20491;-81
2022/11/27 05:14:46;;;;;;;17.00;8.90;;;;;;;;;;4927163;29;20072;-83
2022/11/27 05:17:12;;;;;;;16.52;8.52;;;;;;;;;;4930869;28;20043;-82
2022/11/27 05:19:37;;;;;;;15.98;8.85;;;;;;;;;;4933057;29;20039;-82
2022/11/27 05:22:05;;;;;;;17.77;8.95;;;;;;;;;;4920604;29;20040;-82
2022/11/27 05:24:30;;;;;;;;;;;;;;;;;;4916224;29;20511;-82
2022/11/27 05:26:56;;;;;;;16.05;8.43;;;;;;;;;;4930355;29;19970;-82
2022/11/27 05:29:22;;;;;;;17.40;8.82;;;;;;;;;;4916917;29;20504;-82
2022/11/27 05:31:48;;;;;;;17.05;8.77;;;;;;;;;;4915569;28;20122;-80
2022/11/27 05:34:14;;;;;;;14.75;8.10;;;;;;;;;;4933138;29;20778;-81
2022/11/27 05:36:40;;;;;;;18.90;9.07;;;;;;;;;;4932405;29;20122;-81
2022/11/27 05:39:07;;;;;;;16.25;8.18;;;;;;;;;;4934053;29;20090;-82
2022/11/27 05:41:33;;;;;;;17.53;8.60;;;;;;;;;;4903113;29;21046;-81
2022/11/27 05:43:59;;;;;;;19.00;7.95;;;;;;;;;;4930752;29;20031;-81
2022/11/27 05:46:24;;;;;;;18.33;8.93;;;;;;;;;;4930516;29;20047;-81
2022/11/27 05:48:50;;;;;;;18.30;9.30;;;;;;;;;;4901555;29;20043;-81
2022/11/27 05:51:16;;;;;;;16.80;9.05;;;;;;;;;;4932834;29;20040;-82
2022/11/27 05:53:42;;;;;;;19.90;8.98;;;;;;;;;;4927799;28;20044;-82
2022/11/27 05:56:09;;;;;;;17.42;9.38;;;;;;;;;;4917100;29;20040;-82
2022/11/27 05:58:36;;;;;;;19.42;9.48;;;;;;;;;;4914087;29;20047;-81
2022/11/27 06:01:02;;;;;;;15.93;8.73;;;;;;;;;;4917947;29;20043;-83
2022/11/27 06:03:27;;;;;;;17.17;9.23;;;;;;;;;;4932127;28;20027;-82
2022/11/27 06:05:53;;;;;;;18.45;9.23;;;;;;;;;;4916575;28;20039;-82
2022/11/27 06:08:18;;;;;;;16.73;8.98;;;;;;;;;;4931800;28;20050;-82
2022/11/27 06:10:46;;;;;;;20.02;9.25;;;;;;;;;;4917230;28;20059;-83
2022/11/27 06:13:12;;;;;;;20.27;9.25;;;;;;;;;;4925765;28;20051;-81
2022/11/27 06:15:38;;;;;;;18.33;9.32;;;;;;;;;;4912824;28;20047;-82
2022/11/27 06:18:03;;;;;;;19.08;8.77;;;;;;;;;;4914497;29;20102;-82
2022/11/27 06:20:29;;;;;;;19.42;9.45;;;;;;;;;;4914831;29;20027;-83
2022/11/27 06:22:55;;;;;;;22.92;9.32;;;;;;;;;;4916211;29;20529;-82
2022/11/27 06:25:21;;;;;;;17.40;8.75;;;;;;;;;;4915262;29;20063;-82
2022/11/27 06:27:49;;;;;;;17.20;8.65;;;;;;;;;;4929029;29;20523;-82
2022/11/27 06:30:15;;;;;;;16.55;8.65;;;;;;;;;;4912526;29;20032;-82
2022/11/27 06:32:40;;;;;;;18.95;8.68;;;;;;;;;;4915384;29;20051;-81
2022/11/27 06:35:06;;;;;;;18.52;8.77;;;;;;;;;;4927071;28;20047;-84
2022/11/27 06:37:32;;;;;;;23.10;8.77;;;;;;;;;;4916802;29;20460;-82
2022/11/27 06:39:57;;;;;;;15.23;8.43;;;;;;;;;;4913016;29;20066;-82
2022/11/27 06:42:22;;;;;;;20.63;9.30;;;;;;;;;;4933161;29;20062;-82
2022/11/27 06:44:48;;;;;;;17.17;8.27;;;;;;;;;;4912940;28;20043;-81
2022/11/27 06:47:13;;;;;;;17.30;8.35;;;;;;;;;;4915582;28;20106;-85
2022/11/27 06:49:39;;;;;;;17.77;9.00;;;;;;;;;;4915369;29;20376;-81
2022/11/27 06:52:04;;;;;;;16.52;8.63;;;;;;;;;;4929394;28;20455;-80
2022/11/27 06:54:30;;;;;;;18.85;8.43;;;;;;;;;;4920352;29;20440;-81
2022/11/27 06:56:55;;;;;;;21.33;9.23;;;;;;;;;;4929074;29;20043;-83
2022/11/27 06:59:21;;;;;;;22.90;9.57;;;;;;;;;;4915416;29;20488;-81
2022/11/27 07:01:47;;;;;;;19.40;10.15;;;;;;;;;;4919423;29;20134;-79
2022/11/27 07:04:14;;;;;;;20.20;9.57;;;;;;;;;;4917310;28;20079;-80
2022/11/27 07:06:40;;;;;;;20.40;8.37;;;;;;;;;;4930251;29;20054;-83
2022/11/27 07:09:06;;;;;;;16.27;8.52;;;;;;;;;;4934812;29;20043;-82
2022/11/27 07:11:32;;;;;;;16.35;8.15;;;;;;;;;;4928050;29;20103;-81
2022/11/27 07:14:00;;;;;;;17.95;8.82;;;;;;;;;;4914656;28;20031;-81
2022/11/27 07:16:27;;;;;;;22.58;9.23;;;;;;;;;;4914860;29;20495;-81
2022/11/27 07:18:55;;;;;;;16.35;8.65;;;;;;;;;;4927680;29;20119;-82
2022/11/27 07:21:21;;;;;;;22.23;9.13;;;;;;;;;;4915859;29;20387;-82
2022/11/27 07:23:46;;;;;;;20.10;8.75;;;;;;;;;;4916986;29;20046;-84
2022/11/27 07:26:25;;;;;;;17.40;8.57;;;;;;;;;;4918755;29;20043;-84
2022/11/27 07:28:51;;;;;;;16.23;9.15;;;;;;;;;;4936913;28;20550;-82
2022/11/27 07:31:29;;;;;;;17.40;8.15;;;;;;;;;;4922600;28;20427;-83
2022/11/27 07:33:55;;;;;;;15.18;8.18;;;;;;;;;;4932197;29;20127;-83
2022/11/27 07:36:28;;;;;;;17.58;8.88;;;;;;;;;;4918132;29;20039;-82
2022/11/27 07:38:54;;;;;;;15.98;8.40;;;;;;;;;;4921957;28;20521;-82
2022/11/27 07:41:20;;;;;;;17.15;8.13;;;;;;;;;;4924050;29;20023;-82
2022/11/27 07:43:45;;;;;;;18.73;8.25;;;;;;;;;;4935973;29;20040;-83
2022/11/27 07:46:16;;;;;;;16.80;7.97;;;;;;;;;;4922604;28;20074;-82
2022/11/27 07:48:41;;;;;;;18.85;9.10;;;;;;;;;;4948248;28;20054;-83
2022/11/27 07:51:08;;;;;;;18.27;8.90;;;;;;;;;;4918778;29;20035;-82
2022/11/27 07:53:38;;;;;;;18.33;9.18;;;;;;;;;;4936760;29;20055;-83
2022/11/27 07:56:05;;;;;;;18.17;8.27;;;;;;;;;;4915927;29;20087;-82
2022/11/27 07:58:32;;;;;;;15.43;8.25;;;;;;;;;;4915276;29;20151;-82
2022/11/27 08:00:57;;;;;;;14.55;7.45;;;;;;;;;;4920357;28;20503;-82
2022/11/27 08:03:23;;;;;;;14.90;7.40;;;;;;;;;;4933815;29;20043;-84
2022/11/27 08:05:49;;;;;;;14.35;8.50;;;;;;;;;;4916676;28;20118;-82
2022/11/27 08:08:14;;;;;;;15.18;7.93;;;;;;;;;;4935624;29;20035;-85
2022/11/27 08:10:40;;;;;;;15.55;7.65;;;;;;;;;;4918508;28;20519;-85
2022/11/27 08:13:05;;;;;;;14.70;7.78;;;;;;;;;;4922596;29;20044;-84
2022/11/27 08:15:31;;;;;;;15.52;8.73;;;;;;;;;;4914997;29;20640;-84
2022/11/27 08:17:57;;;;;;;17.48;7.95;;;;;;;;;;4915249;28;20058;-84
2022/11/27 08:20:23;;;;;;;18.50;8.90;;;;;;;;;;4932596;28;20616;-83
2022/11/27 08:22:48;;;;;;;14.82;8.13;;;;;;;;;;4916961;29;20040;-83
2022/11/27 08:25:14;;;;;;;14.73;8.20;;;;;;;;;;4913066;28;20134;-83
2022/11/27 08:27:40;;;;;;;13.88;8.13;;;;;;;;;;4918062;29;20403;-83
2022/11/27 08:30:06;;;;;;;15.15;8.23;;;;;;;;;;4925400;28;20032;-84
2022/11/27 08:32:32;;;;;;;13.80;7.88;;;;;;;;;;4931238;29;20110;-84
2022/11/27 08:34:57;;;;;;;14.98;7.82;;;;;;;;;;4919840;29;20127;-84
2022/11/27 08:37:24;;;;;;;15.68;8.15;;;;;;;;;;4945988;28;20064;-83
2022/11/27 08:39:49;;;;;;;13.35;7.32;;;;;;;;;;4918965;29;20040;-84
2022/11/27 08:42:15;;;;;;;14.80;7.70;;;;;;;;;;4920316;29;20091;-84
2022/11/27 08:44:40;;;;;;;16.63;8.27;;;;;;;;;;4918747;29;20395;-84
2022/11/27 08:47:09;;;;;;;14.18;7.97;;;;;;;;;;4919110;29;20050;-86
2022/11/27 08:49:34;;;;;;;14.43;7.22;;;;;;;;;;4921985;29;20563;-84
2022/11/27 08:52:00;;;;;;;15.13;7.50;;;;;;;;;;4919824;28;20046;-87
2022/11/27 08:54:26;;;;;;;13.95;7.80;;;;;;;;;;4917980;29;25176;-86
2022/11/27 08:56:51;;;;;;;14.90;7.28;;;;;;;;;;4920302;28;20040;-85
2022/11/27 08:59:19;;;;;;;13.80;6.80;;;;;;;;;;4912237;28;20039;-86
2022/11/27 09:01:45;;;;;;;14.45;7.53;;;;;;;;;;4906412;29;20139;-85
2022/11/27 09:04:10;;;;;;;15.48;7.05;;;;;;;;;;4933336;28;20507;-85
2022/11/27 09:06:36;;;;;;;13.20;7.03;;;;;;;;;;4917804;29;20535;-87
2022/11/27 09:09:05;;;;;;;15.35;8.13;;;;;;;;;;4896330;28;20042;-90
2022/11/27 09:11:40;;;;;;;14.07;6.32;;;;;;;;;;4909394;28;20483;-89
2022/11/27 09:14:07;;;;;;;11.32;6.65;;;;;;;;;;4947911;28;20126;-91
2022/11/27 09:16:52;;;;;;;15.30;7.00;;;;;;;;;;4881142;29;20558;-86
2022/11/27 09:19:18;;;;;;;15.35;7.72;;;;;;;;;;4889822;29;20043;-90
2022/11/27 09:21:43;;;;;;;12.50;6.85;;;;;;;;;;4935884;29;20036;-90
2022/11/27 09:24:09;;;;;;;13.20;7.22;;;;;;;;;;4935541;28;20368;-87
2022/11/27 09:26:34;;;;;;;12.75;6.85;;;;;;;;;;4940380;29;20040;-91
2022/11/27 09:29:00;;;;;;;12.70;6.90;;;;;;;;;;4950513;28;20042;-90
2022/11/27 09:31:28;;;;;;;14.15;6.53;;;;;;;;;;4928403;28;21650;-89
2022/11/27 09:33:54;;;;;;;16.23;6.97;;;;;;;;;;4903587;28;20053;-81
2022/11/27 09:36:22;;;;;;;13.45;6.72;;;;;;;;;;4931292;29;20035;-80
2022/11/27 09:38:47;;;;;;;12.60;6.70;;;;;;;;;;4920217;29;20043;-80
2022/11/27 09:41:43;;;;;;;14.35;7.13;;;;;;;;;;4919597;29;20035;-81
2022/11/27 09:44:31;;;;;;;10.98;6.30;;;;;;;;;;4949782;28;20051;-82
2022/11/27 09:47:00;;;;;;;12.18;6.75;;;;;;;;;;4945582;28;20052;-81
2022/11/27 09:49:35;;;;;;;11.70;6.93;;;;;;;;;;4916110;29;20503;-81
2022/11/27 09:52:03;;;;;;;16.38;6.80;;;;;;;;;;4914822;29;20052;-81
2022/11/27 09:55:23;;;;;;;13.93;6.65;;;;;;;;;;4929157;28;20349;-81
2022/11/27 09:57:56;;;;;;;12.75;6.63;;;;;;;;;;4903424;29;20035;-82
2022/11/27 10:00:22;;;;;;;10.82;6.13;;;;;;;;;;4914089;28;20039;-81
2022/11/27 10:02:47;;;;;;;12.23;7.13;;;;;;;;;;4932143;29;20076;-81
2022/11/27 10:05:38;;;;;;;12.43;6.55;;;;;;;;;;4912315;29;20043;-82
2022/11/27 10:08:24;;;;;;;13.48;7.18;;;;;;;;;;4947425;28;20567;-81
2022/11/27 10:11:31;;;;;;;11.02;6.68;;;;;;;;;;4936915;28;20043;-81
2022/11/27 10:13:58;;;;;;;14.68;6.78;;;;;;;;;;4917629;29;20087;-81
2022/11/27 10:16:33;;;;;;;9.88;5.90;;;;;;;;;;4928275;29;20682;-80
2022/11/27 10:19:38;;;;;;;13.65;6.50;;;;;;;;;;4948307;28;20107;-82
2022/11/27 10:22:25;;;;;;;10.55;6.60;;;;;;;;;;4860430;29;20052;-80
2022/11/27 10:25:28;;;;;;;14.02;6.28;;;;;;;;;;4929232;28;20044;-83
2022/11/27 10:28:03;;;;;;;10.88;6.05;;;;;;;;;;4932159;29;20031;-83
2022/11/27 10:30:30;;;;;;;12.52;6.82;;;;;;;;;;4932061;29;20050;-83
2022/11/27 10:32:57;;;;;;;12.02;6.18;;;;;;;;;;4927538;28;20489;-83
2022/11/27 10:35:27;;;;;;;11.13;6.03;;;;;;;;;;4918806;28;20392;-84
2022/11/27 10:38:21;;;;;;;11.82;6.03;;;;;;;;;;4915521;29;20036;-83
2022/11/27 10:40:55;;;;;;;12.35;6.20;;;;;;;;;;4946442;28;20046;-85
2022/11/27 10:43:23;;;;;;;11.82;6.38;;;;;;;;;;4918521;29;20373;-84
2022/11/27 10:45:55;;;;;;;11.15;5.88;;;;;;;;;;4915871;29;20385;-84
2022/11/27 10:48:21;;;;;;;9.52;6.00;;;;;;;;;;4916100;29;20395;-83
2022/11/27 10:50:47;;;;;;;11.13;6.30;;;;;;;;;;4923268;28;20507;-84
2022/11/27 10:53:31;;;;;;;12.32;5.78;;;;;;;;;;4933882;28;20134;-85
2022/11/27 10:56:15;;;;;;;10.50;5.68;;;;;;;;;;4913865;29;20051;-87
2022/11/27 10:58:51;;;;;;;16.58;5.90;;;;;;;;;;4929456;28;20054;-83
2022/11/27 11:01:22;;;;;;;10.70;5.63;;;;;;;;;;4945635;28;20035;-82
2022/11/27 11:03:47;;;;;;;8.25;5.28;;;;;;;;;;4924401;29;20404;-82
2022/11/27 11:06:14;;;;;;;10.02;5.07;;;;;;;;;;4914681;28;20032;-81
2022/11/27 11:08:39;;;;;;;8.90;5.17;;;;;;;;;;4901045;29;20403;-82
2022/11/27 11:11:09;;;;;;;11.02;5.07;;;;;;;;;;4931954;29;20031;-81
2022/11/27 11:13:47;;;;;;;9.38;5.60;;;;;;;;;;4932484;29;20605;-81
2022/11/27 11:16:18;;;;;;;8.57;4.85;;;;;;;;;;4930935;29;20036;-81
2022/11/27 11:18:48;;;;;;;9.43;5.45;;;;;;;;;;4929562;29;20052;-80
2022/11/27 11:21:30;;;;;;;11.68;5.55;;;;;;;;;;4911536;28;20526;-81
2022/11/27 11:23:57;;;;;;;11.02;6.45;;;;;;;;;;4912743;29;20040;-81
2022/11/27 11:26:27;;;;;;;10.57;5.93;;;;;;;;;;4929418;28;20570;-81
2022/11/27 11:28:54;;;;;;;9.50;5.20;;;;;;;;;;4912927;28;20055;-82
2022/11/27 11:31:22;;;;;;;12.70;5.50;;;;;;;;;;4912202;29;20092;-82
2022/11/27 11:34:03;;;;;;;8.57;4.90;;;;;;;;;;4913980;29;20094;-83
2022/11/27 11:36:31;;;;;;;8.52;4.53;;;;;;;;;;4930742;28;20103;-82
2022/11/27 11:38:56;;;;;;;10.65;5.03;;;;;;;;;;4930504;29;20039;-82
2022/11/27 11:41:23;;;;;;;11.40;5.63;;;;;;;;;;4927427;29;20036;-83
2022/11/27 11:43:57;;;;;;;9.07;4.57;;;;;;;;;;4918769;29;20039;-83
2022/11/27 11:46:35;;;;;;;7.75;4.78;;;;;;;;;;4914762;29;20287;-80
2022/11/27 11:49:03;;;;;;;9.00;4.65;;;;;;;;;;4944289;28;20589;-82
2022/11/27 11:51:55;;;;;;;9.35;5.22;;;;;;;;;;4927724;29;20036;-82
2022/11/27 11:54:51;;;;;;;8.43;4.82;;;;;;;;;;4899522;28;20042;-82
2022/11/27 11:57:26;;;;;;;10.48;5.00;;;;;;;;;;4900885;28;20089;-82
2022/11/27 12:00:02;;;;;;;7.68;4.72;;;;;;;;;;4935023;28;20058;-82
2022/11/27 12:02:39;;;;;;;9.95;4.88;;;;;;;;;;4931536;29;20622;-82
2022/11/27 12:05:26;;;;;;;9.10;4.82;;;;;;;;;;4932101;29;20040;-82
2022/11/27 12:08:03;;;;;;;9.23;4.25;;;;;;;;;;4947314;28;20555;-82
2022/11/27 12:10:44;;;;;;;8.73;4.20;;;;;;;;;;4933223;28;20072;-82
2022/11/27 12:13:35;;;;;;;9.93;4.82;;;;;;;;;;4934892;28;20123;-80
2022/11/27 12:16:31;;;;;;;8.60;4.80;;;;;;;;;;4931026;29;20035;-83
2022/11/27 12:19:03;;;;;;;9.98;5.13;;;;;;;;;;4932516;29;20048;-82
2022/11/27 12:21:55;;;;;;;11.25;5.10;;;;;;;;;;4931560;29;20123;-83
2022/11/27 12:24:51;;;;;;;10.65;5.22;;;;;;;;;;4951066;28;20567;-82
2022/11/27 12:27:52;;;;;;;8.40;4.78;;;;;;;;;;4934096;28;20043;-83
2022/11/27 12:30:20;;;;;;;8.95;4.43;;;;;;;;;;4914807;28;20040;-83
2022/11/27 12:33:12;;;;;;;8.77;5.10;;;;;;;;;;4919713;28;20048;-82
2022/11/27 12:36:14;;;;;;;10.00;5.22;;;;;;;;;;4916042;29;20499;-83
2022/11/27 12:38:42;;;;;;;7.47;4.65;;;;;;;;;;4916279;28;20047;-81
2022/11/27 12:41:17;;;;;;;10.63;4.47;;;;;;;;;;4929790;29;20488;-81
2022/11/27 12:43:50;;;;;;;7.80;4.45;;;;;;;;;;4956160;28;20043;-82
2022/11/27 12:46:58;;;;;;;6.80;3.67;;;;;;;;;;4921071;29;20050;-82
2022/11/27 12:49:31;;;;;;;7.93;4.60;;;;;;;;;;4916518;29;20121;-82
2022/11/27 12:52:09;;;;;;;10.68;4.72;;;;;;;;;;4917966;29;20115;-81
2022/11/27 12:54:37;;;;;;;;;;;;;;;;;;4948213;28;20098;-80
2022/11/27 12:57:12;;;;;;;11.00;5.30;;;;;;;;;;4943818;28;19926;-80
2022/11/27 12:59:44;;;;;;;9.38;4.55;;;;;;;;;;4917216;29;20036;-80
2022/11/27 13:02:28;;;;;;;8.63;4.03;;;;;;;;;;4930112;28;20035;-80
2022/11/27 13:05:04;;;;;;;10.30;4.30;;;;;;;;;;4933548;29;20056;-80
2022/11/27 13:07:37;;;;;;;7.45;3.53;;;;;;;;;;4919191;29;20402;-80
2022/11/27 13:10:05;;;;;;;9.18;3.95;;;;;;;;;;4949674;28;20044;-81
2022/11/27 13:12:55;;;;;;;8.32;4.05;;;;;;;;;;4915613;29;20534;-80
2022/11/27 13:15:20;;;;;;;7.35;3.70;;;;;;;;;;4944470;28;20059;-81
2022/11/27 13:17:50;;;;;;;11.25;4.32;;;;;;;;;;4933797;28;20134;-80
2022/11/27 13:20:24;;;;;;;6.90;3.85;;;;;;;;;;4947863;28;20522;-80
2022/11/27 13:22:50;;;;;;;8.40;4.40;;;;;;;;;;4915973;29;20542;-78
2022/11/27 13:25:15;;;;;;;6.75;3.95;;;;;;;;;;4919287;29;20031;-81
2022/11/27 13:27:44;;;;;;;7.85;4.45;;;;;;;;;;4933121;29;20138;-79
2022/11/27 13:30:36;;;;;;;6.97;4.25;;;;;;;;;;4932852;28;20050;-81
2022/11/27 13:33:05;;;;;;;8.98;4.70;;;;;;;;;;4942260;28;20383;-80
2022/11/27 13:35:38;;;;;;;8.82;4.85;;;;;;;;;;4949833;28;20066;-82
2022/11/27 13:38:19;;;;;;;7.88;4.75;;;;;;;;;;4929574;28;20086;-81
2022/11/27 13:40:51;;;;;;;7.40;4.55;;;;;;;;;;4927490;28;20086;-80
2022/11/27 13:43:42;;;;;;;10.65;4.80;;;;;;;;;;4948732;28;20039;-82
2022/11/27 13:46:25;;;;;;;9.68;5.13;;;;;;;;;;4918327;28;20905;-81
2022/11/27 13:48:56;;;;;;;8.63;4.63;;;;;;;;;;4914315;29;20499;-81
2022/11/27 13:51:27;;;;;;;9.27;5.15;;;;;;;;;;4916331;29;20088;-82
2022/11/27 13:54:11;;;;;;;7.35;4.65;;;;;;;;;;4916112;28;20071;-81
2022/11/27 13:56:37;;;;;;;13.48;5.18;;;;;;;;;;4919001;29;20047;-81
2022/11/27 13:59:35;;;;;;;10.73;5.35;;;;;;;;;;4930491;28;20432;-80
2022/11/27 14:02:03;;;;;;;10.02;5.05;;;;;;;;;;4884200;29;20099;-82
2022/11/27 14:04:30;;;;;;;9.32;4.85;;;;;;;;;;4934597;28;20561;-79
2022/11/27 14:06:58;;;;;;;9.40;5.00;;;;;;;;;;4944746;28;20031;-80
2022/11/27 14:09:40;;;;;;;10.75;5.18;;;;;;;;;;4943877;28;20067;-82
2022/11/27 14:12:31;;;;;;;9.07;4.85;;;;;;;;;;4936158;29;20511;-81
2022/11/27 14:15:05;;;;;;;9.07;5.13;;;;;;;;;;4901715;28;20106;-82
2022/11/27 14:17:48;;;;;;;;;;;;;;;;;;;;;
2022/11/27 14:20:17;;;;;;;10.05;5.03;;;;;;;;;;4928940;28;20160;-82
2022/11/27 14:22:54;;;;;;;8.95;5.20;;;;;;;;;;4945882;28;20047;-82
2022/11/27 14:25:28;;;;;;;9.18;4.90;;;;;;;;;;4903802;29;20035;-81
2022/11/27 14:27:58;;;;;;;12.30;5.13;;;;;;;;;;4911170;28;20070;-85
2022/11/27 14:30:32;;;;;;;10.23;5.20;;;;;;;;;;4946765;28;20043;-82
2022/11/27 14:32:58;;;;;;;10.38;5.07;;;;;;;;;;4915149;29;20139;-82
2022/11/27 14:35:25;;;;;;;10.52;5.45;;;;;;;;;;4911341;28;20118;-82
2022/11/27 14:37:51;;;;;;;8.63;4.70;;;;;;;;;;4917006;28;20122;-81
2022/11/27 14:40:26;;;;;;;10.70;4.97;;;;;;;;;;4930688;28;20110;-82
2022/11/27 14:42:52;;;;;;;9.80;5.25;;;;;;;;;;4933946;28;20605;-82
2022/11/27 14:45:20;;;;;;;8.85;4.60;;;;;;;;;;4921458;29;20254;-82
2022/11/27 14:47:51;;;;;;;9.90;4.85;;;;;;;;;;4929937;29;20039;-82
2022/11/27 14:50:18;;;;;;;9.13;4.95;;;;;;;;;;4914000;29;20088;-82
2022/11/27 14:52:55;;;;;;;9.52;4.85;;;;;;;;;;4929381;29;20039;-81
2022/11/27 14:55:21;;;;;;;8.75;4.95;;;;;;;;;;4917591;29;20114;-82
2022/11/27 14:57:48;;;;;;;9.52;5.03;;;;;;;;;;4928523;29;20040;-82
2022/11/27 15:00:14;;;;;;;10.50;5.53;;;;;;;;;;4914324;28;20063;-80